createdAt,value
2018-09-19T00:01:03.811Z,16.12
2018-09-19T00:03:32.674Z,15.13
2018-09-19T00:06:01.581Z,13.53
2018-09-19T00:08:30.451Z,11.73
2018-09-19T00:10:59.321Z,10.20
2018-09-19T00:13:28.194Z,11.53
2018-09-19T00:15:57.074Z,12.27
2018-09-19T00:18:25.931Z,15.10
2018-09-19T00:20:54.793Z,13.55
2018-09-19T00:23:23.741Z,7.90
2018-09-19T00:25:52.535Z,10.43
2018-09-19T00:28:21.408Z,9.63
2018-09-19T00:30:50.247Z,9.03
2018-09-19T00:33:19.145Z,10.23
2018-09-19T00:35:48.028Z,10.70
2018-09-19T00:38:16.890Z,11.73
2018-09-19T00:40:45.782Z,9.93
2018-09-19T00:43:14.754Z,8.33
2018-09-19T00:45:43.667Z,12.10
2018-09-19T00:48:12.536Z,13.77
2018-09-19T00:50:41.400Z,13.30
2018-09-19T00:53:10.325Z,12.20
2018-09-19T00:55:39.160Z,15.57
2018-09-19T00:58:08.086Z,11.73
2018-09-19T01:00:36.911Z,14.77
2018-09-19T01:03:05.793Z,9.60
2018-09-19T01:05:34.689Z,16.10
2018-09-19T01:08:03.623Z,12.07
2018-09-19T01:10:32.500Z,15.87
2018-09-19T01:13:01.373Z,10.43
2018-09-19T01:15:30.233Z,11.27
2018-09-19T01:17:59.146Z,13.53
2018-09-19T01:20:28.051Z,11.53
2018-09-19T01:22:56.964Z,13.00
2018-09-19T01:25:25.827Z,11.90
2018-09-19T01:27:54.718Z,12.43
2018-09-19T01:30:23.606Z,14.63
2018-09-19T01:32:52.521Z,18.73
2018-09-19T01:35:21.397Z,10.30
2018-09-19T01:37:50.298Z,7.93
2018-09-19T01:40:19.158Z,13.28
2018-09-19T01:42:48.017Z,11.93
2018-09-19T01:45:16.865Z,15.77
2018-09-19T01:47:45.736Z,15.53
2018-09-19T01:50:14.623Z,12.27
2018-09-19T01:52:43.535Z,15.23
2018-09-19T01:55:12.381Z,9.57
2018-09-19T01:57:41.337Z,11.33
2018-09-19T02:00:10.241Z,12.57
2018-09-19T02:02:39.098Z,12.37
2018-09-19T02:05:07.967Z,13.03
2018-09-19T02:07:37.129Z,15.07
2018-09-19T02:10:06.108Z,10.10
2018-09-19T02:12:34.961Z,8.83
2018-09-19T02:15:03.850Z,10.83
2018-09-19T02:17:32.767Z,12.47
2018-09-19T02:20:01.668Z,9.43
2018-09-19T02:22:30.550Z,10.20
2018-09-19T02:24:59.414Z,13.57
2018-09-19T02:27:28.259Z,12.53
2018-09-19T02:29:57.137Z,15.90
2018-09-19T02:32:26.026Z,11.03
2018-09-19T02:34:54.916Z,8.27
2018-09-19T02:37:23.763Z,15.07
2018-09-19T02:39:52.621Z,10.37
2018-09-19T02:42:21.571Z,10.75
2018-09-19T02:44:50.457Z,13.07
2018-09-19T02:47:19.318Z,12.87
2018-09-19T02:49:48.193Z,11.93
2018-09-19T02:52:17.072Z,10.60
2018-09-19T02:54:45.957Z,14.53
2018-09-19T02:57:14.840Z,11.17
2018-09-19T02:59:43.688Z,9.40
2018-09-19T03:02:12.543Z,11.27
2018-09-19T03:07:10.276Z,10.40
2018-09-19T03:09:39.115Z,12.40
2018-09-19T03:12:07.989Z,13.60
2018-09-19T03:14:36.860Z,10.20
2018-09-19T03:17:05.812Z,11.83
2018-09-19T03:19:34.651Z,12.40
2018-09-19T03:22:05.668Z,10.90
2018-09-19T03:24:34.511Z,12.93
2018-09-19T03:27:03.448Z,13.57
2018-09-19T03:29:32.325Z,11.30
2018-09-19T03:32:01.187Z,14.27
2018-09-19T03:34:30.384Z,12.13
2018-09-19T03:36:59.255Z,10.20
2018-09-19T03:39:28.152Z,12.87
2018-09-19T03:41:57.099Z,10.93
2018-09-19T03:44:25.962Z,10.43
2018-09-19T03:46:54.952Z,7.70
2018-09-19T03:49:23.802Z,10.33
2018-09-19T03:51:52.746Z,9.40
2018-09-19T03:54:21.725Z,12.93
2018-09-19T03:56:50.764Z,13.80
2018-09-19T03:59:19.891Z,12.43
2018-09-19T04:01:48.781Z,13.93
2018-09-19T04:04:17.666Z,12.13
2018-09-19T04:06:46.606Z,12.43
2018-09-19T04:09:15.449Z,15.07
2018-09-19T04:11:44.351Z,12.33
2018-09-19T04:14:13.268Z,14.40
2018-09-19T04:16:42.427Z,10.60
2018-09-19T04:19:11.324Z,13.00
2018-09-19T04:21:53.129Z,10.33
2018-09-19T04:24:21.973Z,14.60
2018-09-19T04:26:50.846Z,9.50
2018-09-19T04:29:19.694Z,13.47
2018-09-19T04:31:48.557Z,16.90
2018-09-19T04:34:17.448Z,13.13
2018-09-19T04:36:46.341Z,14.93
2018-09-19T04:39:15.216Z,15.30
2018-09-19T04:41:44.085Z,15.83
2018-09-19T04:44:12.952Z,14.80
2018-09-19T04:46:41.798Z,14.00
2018-09-19T04:49:10.679Z,13.07
2018-09-19T04:51:40.418Z,15.03
2018-09-19T04:54:09.425Z,14.43
2018-09-19T04:56:38.635Z,19.77
2018-09-19T04:59:07.473Z,15.03
2018-09-19T05:01:36.435Z,15.80
2018-09-19T05:04:05.258Z,17.82
2018-09-19T05:06:34.127Z,18.33
2018-09-19T05:09:03.183Z,15.30
2018-09-19T05:11:32.127Z,21.35
2018-09-19T05:14:00.952Z,13.87
2018-09-19T05:16:29.887Z,22.20
2018-09-19T05:18:58.787Z,21.70
2018-09-19T05:21:27.659Z,16.23
2018-09-19T05:23:56.560Z,20.33
2018-09-19T05:26:25.457Z,25.67
2018-09-19T05:28:54.280Z,21.07
2018-09-19T05:31:23.160Z,24.33
2018-09-19T05:33:52.065Z,22.63
2018-09-19T05:36:20.923Z,22.70
2018-09-19T05:38:49.804Z,23.43
2018-09-19T05:41:18.702Z,24.23
2018-09-19T05:43:47.582Z,18.60
2018-09-19T05:46:16.511Z,23.23
2018-09-19T05:48:45.371Z,23.00
2018-09-19T05:51:14.214Z,22.57
2018-09-19T05:53:43.083Z,29.33
2018-09-19T05:56:11.981Z,24.40
2018-09-19T05:58:40.887Z,24.43
2018-09-19T06:01:09.749Z,26.60
2018-09-19T06:03:38.634Z,22.17
2018-09-19T06:06:07.511Z,22.77
2018-09-19T06:08:36.455Z,28.03
2018-09-19T06:11:05.448Z,28.87
2018-09-19T06:13:34.386Z,27.73
2018-09-19T06:16:03.228Z,20.07
2018-09-19T06:18:32.290Z,22.03
2018-09-19T06:21:01.175Z,26.87
2018-09-19T06:23:30.072Z,26.33
2018-09-19T06:25:59.123Z,22.30
2018-09-19T06:28:27.993Z,21.93
2018-09-19T06:30:56.860Z,21.67
2018-09-19T06:33:25.916Z,25.87
2018-09-19T06:35:54.894Z,20.70
2018-09-19T06:38:23.833Z,24.20
2018-09-19T06:40:52.895Z,24.40
2018-09-19T06:43:21.652Z,20.87
2018-09-19T06:45:50.557Z,17.80
2018-09-19T06:48:19.431Z,27.47
2018-09-19T06:50:48.328Z,24.37
2018-09-19T06:53:17.219Z,23.90
2018-09-19T06:55:46.081Z,22.77
2018-09-19T06:58:15.016Z,24.33
2018-09-19T07:00:43.964Z,20.87
2018-09-19T07:03:12.874Z,23.23
2018-09-19T07:05:41.803Z,18.90
2018-09-19T07:08:10.736Z,21.03
2018-09-19T07:10:39.761Z,19.40
2018-09-19T07:13:08.620Z,29.32
2018-09-19T07:15:37.618Z,21.90
2018-09-19T07:18:06.428Z,26.43
2018-09-19T07:20:35.336Z,22.37
2018-09-19T07:23:04.259Z,22.13
2018-09-19T07:25:33.143Z,25.37
2018-09-19T07:28:02.035Z,16.43
2018-09-19T07:30:31.156Z,21.10
2018-09-19T07:33:00.073Z,19.30
2018-09-19T07:35:29.055Z,20.37
2018-09-19T07:37:57.969Z,23.23
2018-09-19T07:40:27.211Z,23.57
2018-09-19T07:42:56.030Z,23.23
2018-09-19T07:45:24.885Z,20.27
2018-09-19T07:47:53.838Z,22.53
2018-09-19T07:50:22.729Z,19.80
2018-09-19T07:52:51.600Z,21.17
2018-09-19T07:55:20.538Z,22.77
2018-09-19T07:57:49.382Z,19.60
2018-09-19T08:00:18.283Z,20.90
2018-09-19T08:02:47.124Z,23.12
2018-09-19T08:05:16.050Z,26.20
2018-09-19T08:07:46.353Z,20.08
2018-09-19T08:10:13.867Z,23.35
2018-09-19T08:12:42.865Z,20.35
2018-09-19T08:15:11.690Z,20.02
2018-09-19T08:17:42.813Z,18.30
2018-09-19T08:20:11.725Z,19.35
2018-09-19T08:22:40.703Z,21.50
2018-09-19T08:25:09.551Z,19.60
2018-09-19T08:27:38.458Z,21.00
2018-09-19T08:30:07.462Z,19.75
2018-09-19T08:32:36.348Z,19.62
2018-09-19T08:35:05.445Z,21.27
2018-09-19T08:37:34.496Z,17.67
2018-09-19T08:40:06.074Z,23.10
2018-09-19T08:42:34.964Z,20.55
2018-09-19T08:45:03.894Z,20.70
2018-09-19T08:47:32.979Z,18.57
2018-09-19T08:50:01.817Z,21.48
2018-09-19T08:52:33.842Z,17.98
2018-09-19T08:55:53.900Z,22.77
2018-09-19T08:58:19.453Z,18.17
2018-09-19T09:00:48.436Z,17.67
2018-09-19T09:03:17.331Z,18.67
2018-09-19T09:05:46.293Z,19.77
2018-09-19T09:08:15.230Z,17.65
2018-09-19T09:10:44.158Z,18.00
2018-09-19T09:13:13.054Z,20.50
2018-09-19T09:15:41.941Z,17.23
2018-09-19T09:18:10.871Z,21.27
2018-09-19T09:20:39.907Z,16.25
2018-09-19T09:23:08.794Z,19.07
2018-09-19T09:25:37.717Z,15.03
2018-09-19T09:28:06.678Z,20.27
2018-09-19T09:30:35.547Z,14.85
2018-09-19T09:33:04.841Z,17.85
2018-09-19T09:35:33.713Z,15.40
2018-09-19T09:38:02.674Z,17.15
2018-09-19T09:40:31.731Z,18.45
2018-09-19T09:43:00.582Z,15.80
2018-09-19T09:45:29.389Z,17.30
2018-09-19T09:47:58.457Z,16.27
2018-09-19T09:50:27.319Z,19.45
2018-09-19T09:53:04.812Z,16.40
2018-09-19T09:58:37.480Z,16.70
2018-09-19T10:01:11.337Z,18.02
2018-09-19T10:03:41.034Z,16.67
2018-09-19T10:06:18.884Z,17.80
2018-09-19T10:09:00.836Z,15.63
2018-09-19T10:11:29.819Z,16.90
2018-09-19T10:14:10.853Z,19.87
2018-09-19T10:16:51.954Z,15.48
2018-09-19T10:19:39.760Z,13.38
2018-09-19T10:22:15.498Z,15.93
2018-09-19T10:24:49.494Z,13.78
2018-09-19T10:27:30.027Z,17.50
2018-09-19T10:29:59.568Z,17.00
2018-09-19T10:32:35.632Z,18.27
2018-09-19T10:35:09.136Z,13.72
2018-09-19T10:37:47.774Z,15.55
2018-09-19T10:40:24.623Z,12.47
2018-09-19T10:42:57.793Z,12.28
2018-09-19T10:45:27.181Z,14.55
2018-09-19T10:47:56.867Z,16.07
2018-09-19T10:50:28.221Z,13.53
2018-09-19T10:53:06.865Z,14.60
2018-09-19T10:55:58.372Z,15.43
2018-09-19T10:58:40.737Z,13.43
2018-09-19T11:01:28.260Z,13.45
2018-09-19T11:03:59.723Z,14.55
2018-09-19T11:06:49.560Z,15.55
2018-09-19T11:09:22.501Z,15.15
2018-09-19T11:11:58.883Z,13.65
2018-09-19T11:14:40.409Z,13.65
2018-09-19T11:17:22.022Z,11.55
2018-09-19T11:20:09.026Z,15.60
2018-09-19T13:20:48.220Z,13.32
2018-09-19T13:23:17.387Z,14.28
2018-09-19T13:25:46.505Z,12.15
2018-09-19T13:28:18.329Z,11.68
2018-09-19T13:30:47.437Z,10.38
2018-09-19T13:33:18.371Z,15.83
2018-09-19T13:35:47.549Z,15.28
2018-09-19T13:38:19.737Z,15.15
2018-09-19T13:40:48.771Z,14.87
2018-09-19T13:43:19.868Z,13.95
2018-09-19T13:45:49.476Z,9.43
2018-09-19T13:48:20.413Z,11.85
2018-09-19T13:50:59.480Z,17.33
2018-09-19T13:53:30.880Z,14.00
2018-09-19T13:56:00.042Z,16.27
2018-09-19T13:58:29.138Z,10.90
2018-09-19T14:00:58.284Z,13.20
2018-09-19T14:03:27.561Z,14.80
2018-09-19T14:05:56.579Z,14.75
2018-09-19T14:08:25.596Z,11.18
2018-09-19T14:10:54.757Z,12.70
2018-09-19T14:13:23.930Z,13.93
2018-09-19T14:15:52.932Z,11.50
2018-09-19T14:18:24.004Z,14.53
2018-09-19T14:20:57.029Z,10.53
2018-09-19T14:23:24.583Z,12.28
2018-09-19T14:25:53.927Z,10.72
2018-09-19T14:28:25.067Z,10.43
2018-09-19T14:30:54.323Z,13.58
2018-09-19T14:33:23.547Z,12.78
2018-09-19T14:35:52.757Z,12.73
2018-09-19T14:38:21.761Z,14.70
2018-09-19T14:40:51.038Z,14.38
2018-09-19T14:43:22.663Z,13.13
2018-09-19T14:45:49.558Z,11.08
2018-09-19T14:48:23.585Z,12.07
2018-09-19T14:50:55.189Z,14.58
2018-09-19T14:53:26.276Z,12.03
2018-09-19T14:55:53.453Z,12.78
2018-09-19T14:58:22.785Z,14.25
2018-09-19T15:00:54.940Z,12.93
2018-09-19T15:03:23.807Z,14.90
2018-09-19T15:05:52.621Z,10.82
2018-09-19T15:08:21.465Z,13.98
2018-09-19T15:10:50.308Z,11.45
2018-09-19T15:13:19.164Z,9.35
2018-09-19T15:15:47.998Z,13.35
2018-09-19T15:18:16.852Z,13.28
2018-09-19T15:20:45.682Z,10.20
2018-09-19T15:23:14.513Z,14.35
2018-09-19T15:25:43.332Z,11.25
2018-09-19T15:28:12.166Z,11.88
2018-09-19T15:30:41.000Z,8.55
2018-09-19T15:33:09.882Z,12.03
2018-09-19T15:35:38.701Z,11.38
2018-09-19T15:38:07.513Z,11.55
2018-09-19T15:40:36.374Z,9.93
2018-09-19T15:43:05.235Z,10.45
2018-09-19T15:45:34.080Z,12.88
2018-09-19T15:48:03.059Z,10.93
2018-09-19T15:50:31.899Z,8.55
2018-09-19T15:53:00.714Z,14.63
2018-09-19T15:55:29.609Z,9.40
2018-09-19T15:57:58.392Z,11.03
2018-09-19T16:00:27.280Z,8.50
2018-09-19T16:02:56.137Z,10.88
2018-09-19T16:05:24.936Z,11.60
2018-09-19T16:07:53.808Z,8.65
2018-09-19T16:10:22.661Z,11.33
2018-09-19T16:12:51.483Z,12.53
2018-09-19T16:15:20.339Z,10.65
2018-09-19T16:17:49.241Z,12.05
2018-09-19T16:20:18.082Z,8.60
2018-09-19T16:22:46.906Z,11.85
2018-09-19T16:25:15.753Z,10.00
2018-09-19T16:27:44.609Z,13.53
2018-09-19T16:30:13.447Z,12.47
2018-09-19T16:32:42.340Z,10.18
2018-09-19T16:35:11.158Z,12.10
2018-09-19T16:37:39.995Z,11.08
2018-09-19T16:40:08.837Z,11.48
2018-09-19T16:42:37.656Z,13.08
2018-09-19T16:45:06.503Z,7.53
2018-09-19T16:47:35.521Z,9.90
2018-09-19T16:50:04.660Z,8.40
2018-09-19T16:52:33.538Z,13.32
2018-09-19T16:55:02.383Z,12.05
2018-09-19T16:57:31.201Z,12.68
2018-09-19T17:00:00.064Z,11.48
2018-09-19T17:02:28.911Z,8.73
2018-09-19T17:04:57.770Z,9.65
2018-09-19T17:07:26.629Z,8.78
2018-09-19T17:09:55.460Z,9.43
2018-09-19T17:12:24.543Z,6.97
2018-09-19T17:14:53.385Z,8.30
2018-09-19T17:17:22.225Z,9.70
2018-09-19T17:19:51.052Z,10.45
2018-09-19T17:22:19.916Z,10.43
2018-09-19T17:24:48.731Z,9.90
2018-09-19T17:27:17.570Z,11.60
2018-09-19T17:29:46.404Z,11.38
2018-09-19T17:32:15.222Z,10.90
2018-09-19T17:34:44.063Z,8.28
2018-09-19T17:37:12.923Z,11.97
2018-09-19T17:39:41.744Z,10.58
2018-09-19T17:42:10.558Z,13.35
2018-09-19T17:44:39.410Z,12.50
2018-09-19T17:47:08.241Z,11.18
2018-09-19T17:49:37.075Z,10.43
2018-09-19T17:52:05.921Z,9.35
2018-09-19T17:54:34.767Z,10.18
2018-09-19T17:57:03.595Z,10.35
2018-09-19T17:59:32.415Z,14.68
2018-09-19T18:02:01.250Z,11.90
2018-09-19T18:04:30.086Z,9.83
2018-09-19T18:06:58.885Z,9.90
2018-09-19T18:09:27.743Z,10.43
2018-09-19T18:11:56.594Z,10.98
2018-09-19T18:14:25.426Z,11.33
2018-09-19T18:16:54.266Z,11.78
2018-09-19T18:19:23.110Z,13.40
2018-09-19T18:21:51.930Z,10.20
2018-09-19T18:24:20.778Z,11.20
2018-09-19T18:26:49.580Z,9.98
2018-09-19T18:29:18.396Z,14.73
2018-09-19T18:31:47.276Z,12.33
2018-09-19T18:34:16.129Z,13.32
2018-09-19T18:36:44.972Z,8.40
2018-09-19T18:39:13.831Z,9.95
2018-09-19T18:41:42.678Z,9.35
2018-09-19T18:44:11.517Z,12.15
2018-09-19T18:46:40.551Z,11.97
2018-09-19T18:49:09.376Z,11.03
2018-09-19T18:51:38.211Z,10.82
2018-09-19T18:54:07.046Z,14.20
2018-09-19T18:56:35.917Z,10.85
2018-09-19T18:59:04.740Z,14.73
2018-09-19T19:01:33.577Z,9.85
2018-09-19T19:04:02.493Z,12.28
2018-09-19T19:06:31.329Z,13.95
2018-09-19T19:09:00.151Z,12.00
2018-09-19T19:11:28.983Z,12.85
2018-09-19T19:13:57.795Z,14.58
2018-09-19T19:16:26.625Z,9.90
2018-09-19T19:18:55.473Z,9.93
2018-09-19T19:21:24.282Z,10.65
2018-09-19T19:23:53.119Z,19.67
2018-09-19T19:26:21.953Z,14.73
2018-09-19T19:28:50.793Z,12.05
2018-09-19T19:31:19.624Z,12.37
2018-09-19T19:33:48.457Z,12.80
2018-09-19T19:36:17.291Z,10.80
2018-09-19T19:38:46.143Z,13.13
2018-09-19T19:41:14.985Z,14.50
2018-09-19T19:43:43.821Z,10.72
2018-09-19T19:46:12.645Z,12.65
2018-09-19T19:48:41.500Z,12.55
2018-09-19T19:51:10.342Z,10.35
2018-09-19T19:53:39.152Z,11.88
2018-09-19T19:56:07.981Z,12.15
2018-09-19T19:58:36.819Z,10.18
2018-09-19T20:01:05.644Z,13.98
2018-09-19T20:03:34.461Z,13.00
2018-09-19T20:06:03.288Z,12.78
2018-09-19T20:08:32.097Z,12.60
2018-09-19T20:11:00.963Z,10.03
2018-09-19T20:13:29.800Z,15.03
2018-09-19T20:15:58.633Z,10.33
2018-09-19T20:18:27.459Z,13.53
2018-09-19T20:20:56.282Z,13.80
2018-09-19T20:23:25.179Z,10.85
2018-09-19T20:25:53.993Z,11.12
2018-09-19T20:28:22.842Z,13.97
2018-09-19T20:30:51.660Z,13.18
2018-09-19T20:33:20.500Z,14.68
2018-09-19T20:35:49.363Z,13.23
2018-09-19T20:38:18.233Z,8.98
2018-09-19T20:40:47.045Z,12.13
2018-09-19T20:43:15.905Z,12.33
2018-09-19T20:45:44.719Z,10.60
2018-09-19T20:48:13.536Z,12.53
2018-09-19T20:50:42.416Z,12.83
2018-09-19T20:53:11.236Z,15.43
2018-09-19T20:55:40.088Z,14.07
2018-09-19T20:58:08.904Z,8.97
2018-09-19T21:00:37.738Z,15.03
2018-09-19T21:03:06.669Z,17.47
2018-09-19T21:05:35.482Z,13.22
2018-09-19T21:08:04.341Z,12.63
2018-09-19T21:10:33.335Z,13.93
2018-09-19T21:13:02.148Z,12.53
2018-09-19T21:15:30.968Z,9.98
2018-09-19T21:17:59.808Z,12.10
2018-09-19T21:20:28.623Z,15.80
2018-09-19T21:22:57.469Z,12.47
2018-09-19T21:25:26.365Z,12.97
2018-09-19T21:27:55.195Z,13.57
2018-09-19T21:30:24.008Z,12.80
2018-09-19T21:32:52.835Z,14.00
2018-09-19T21:35:21.674Z,13.50
2018-09-19T21:37:50.505Z,11.67
2018-09-19T21:40:19.343Z,12.17
2018-09-19T21:42:48.171Z,15.68
2018-09-19T21:45:17.051Z,16.52
2018-09-19T21:47:45.888Z,12.95
2018-09-19T21:50:14.697Z,13.67
2018-09-19T21:52:43.584Z,12.13
2018-09-19T21:55:12.417Z,14.57
2018-09-19T21:57:41.252Z,12.73
2018-09-19T22:00:10.107Z,13.97
2018-09-19T22:02:38.905Z,14.07
2018-09-19T22:05:07.579Z,12.53
2018-09-19T22:07:36.386Z,13.50
2018-09-19T22:10:05.236Z,13.80
2018-09-19T22:12:34.057Z,10.00
2018-09-19T22:15:02.915Z,15.70
2018-09-19T22:17:31.737Z,16.93
2018-09-19T22:20:00.596Z,12.00
2018-09-19T22:22:29.438Z,13.08
2018-09-19T22:24:58.283Z,12.68
2018-09-19T22:27:27.157Z,12.17
2018-09-19T22:29:55.942Z,12.27
2018-09-19T22:32:24.778Z,14.93
2018-09-19T22:34:53.606Z,15.10
2018-09-19T22:37:22.449Z,12.67
2018-09-19T22:39:51.288Z,14.53
2018-09-19T22:42:20.133Z,11.57
2018-09-19T22:44:48.999Z,15.43
2018-09-19T22:47:17.862Z,13.40
2018-09-19T22:49:46.708Z,10.47
2018-09-19T22:52:15.539Z,14.83
2018-09-19T22:54:44.376Z,13.23
2018-09-19T22:57:13.205Z,15.97
2018-09-19T22:59:42.050Z,15.00
2018-09-19T23:02:10.925Z,11.63
2018-09-19T23:04:39.754Z,11.50
2018-09-19T23:07:08.590Z,14.73
2018-09-19T23:09:37.470Z,13.93
2018-09-19T23:12:06.311Z,12.50
2018-09-19T23:14:35.125Z,16.00
2018-09-19T23:17:04.126Z,15.83
2018-09-19T23:19:32.968Z,12.37
2018-09-19T23:22:02.117Z,14.07
2018-09-19T23:24:30.965Z,11.13
2018-09-19T23:26:59.808Z,14.13
2018-09-19T23:29:28.649Z,18.27
2018-09-19T23:31:57.492Z,10.73
2018-09-19T23:34:26.385Z,10.03
2018-09-19T23:36:55.238Z,12.90
2018-09-19T23:39:24.097Z,14.63
2018-09-19T23:41:52.908Z,11.70
2018-09-19T23:44:21.765Z,15.57
2018-09-19T23:46:50.620Z,15.77
2018-09-19T23:49:19.527Z,13.80
2018-09-19T23:51:48.323Z,14.33
2018-09-19T23:54:17.152Z,16.30
2018-09-19T23:56:46.000Z,15.50
2018-09-19T23:59:14.826Z,14.53
